Terminal Aerodrome Forecast
Issued by NWS

Home | Current Version | Previous Version | Text Only | Print | Product List | Glossary On
Versions: 1 2 3 4 5 6 7 8 9 10 11 12 13 14 15 16
000
FTUS43 KMPX 021127
TAFRNH
TAF
KRNH 021127Z 0212/0312 15003KT 6SM -SHRA BR SCT012 BKN120
      TEMPO 0212/0215 4SM BR
     FM021500 16006KT P6SM BKN120
     FM030600 12004KT 6SM BR SKC
     FM030900 14004KT 4SM BR SKC=

USA.gov is the U.S. government's official web portal to all federal, state and local government web resources and services.